Time;durP1;ratioP1;P1;durP2;ratioP2;P2;SDS_P1;SDS_P2;PMS_P1;PMS_P2;Temp;Humidity;BMP_temperature;BMP_pressure;BME280_temperature;BME280_humidity;BME280_pressure;Samples;Min_cycle;Max_cycle;Signal;HPM_P1;HPM_P2
2021/12/21 00:00:56;;;;;;;5.07;2.95;;;;;;;-0.42;48.81;93924.53;4994918;28;20033;-75
2021/12/21 00:03:22;;;;;;;3.15;2.53;;;;;;;-0.64;49.04;93926.34;5004972;28;20033;-76
2021/12/21 00:05:47;;;;;;;3.33;2.50;;;;;;;-0.61;49.39;93928.47;5004837;28;20045;-77
2021/12/21 00:08:13;;;;;;;4.10;2.60;;;;;;;-0.73;49.58;93912.13;5020423;28;20217;-75
2021/12/21 00:10:43;;;;;;;2.97;2.25;;;;;;;-0.53;49.15;93926.22;5020813;28;20029;-75
2021/12/21 00:13:22;;;;;;;2.20;2.08;;;;;;;-0.58;49.10;93910.47;5018018;28;20067;-76
2021/12/21 00:16:45;;;;;;;4.43;2.53;;;;;;;-0.39;48.84;93929.31;5019722;28;20536;-76
2021/12/21 00:21:20;;;;;;;2.53;2.15;;;;;;;-0.13;48.33;93933.78;5023267;28;20037;-76
2021/12/21 00:23:48;;;;;;;2.90;2.22;;;;;;;0.05;48.10;93944.97;5015059;28;20041;-75
2021/12/21 00:26:17;;;;;;;3.20;2.53;;;;;;;-0.18;48.30;93946.78;5018791;28;20132;-76
2021/12/21 00:31:12;;;;;;;3.50;2.55;;;;;;;-0.55;49.58;93919.69;5017392;28;20047;-76
2021/12/21 00:33:41;;;;;;;2.88;2.40;;;;;;;-0.57;49.91;93947.84;5015300;28;20583;-74
2021/12/21 00:36:08;;;;;;;3.97;2.22;;;;;;;-0.50;50.03;93956.31;5022595;28;20037;-76
2021/12/21 00:38:34;;;;;;;6.03;2.92;;;;;;;-0.42;50.09;93948.06;5021716;28;20068;-75
2021/12/21 00:41:00;;;;;;;3.03;2.67;;;;;;;-0.42;49.68;93942.03;5018216;28;20035;-76
2021/12/21 00:43:27;;;;;;;4.20;2.45;;;;;;;-0.41;49.77;93961.91;5019923;28;20418;-76
2021/12/21 00:45:52;;;;;;;3.28;2.97;;;;;;;-0.37;49.98;93957.78;5017625;28;20599;-77
2021/12/21 00:48:18;;;;;;;3.13;2.85;;;;;;;-0.24;49.50;93957.44;5017523;28;20091;-76
2021/12/21 00:50:44;;;;;;;2.97;2.60;;;;;;;-0.32;49.72;93960.47;5033389;28;20124;-76
2021/12/21 00:53:10;;;;;;;2.72;2.40;;;;;;;-0.24;49.57;93954.84;5018628;28;20036;-76
2021/12/21 00:55:36;;;;;;;3.00;2.42;;;;;;;-0.10;49.51;93951.63;5015138;28;20436;-75
2021/12/21 00:58:01;;;;;;;3.15;2.45;;;;;;;-0.13;49.54;93957.31;5017105;28;20488;-75
2021/12/21 01:00:27;;;;;;;3.20;2.90;;;;;;;-0.14;49.59;93963.56;5018627;28;20129;-77
2021/12/21 01:02:52;;;;;;;3.45;2.92;;;;;;;-0.14;49.64;93963.56;5017428;28;20048;-75
2021/12/21 01:05:39;;;;;;;4.57;2.85;;;;;;;-0.05;49.53;93950.09;5021944;28;20283;-75
2021/12/21 01:08:05;;;;;;;3.13;2.50;;;;;;;-0.11;49.21;93947.41;5018614;28;20626;-76
2021/12/21 01:11:01;;;;;;;2.97;2.35;;;;;;;-0.30;49.59;93950.56;5036534;28;20403;-76
2021/12/21 01:19:02;;;;;;;2.65;2.38;;;;;;;-1.07;54.56;93943.47;4996183;28;20080;-75
2021/12/21 01:21:33;;;;;;;3.20;2.33;;;;;;;-0.99;54.93;93956.13;4998939;28;20180;-76
2021/12/21 01:24:16;;;;;;;4.60;4.18;;;;;;;-1.29;55.45;93963.47;5002370;28;20042;-76
2021/12/21 01:29:34;;;;;;;8.40;4.03;;;;;;;-1.50;55.74;93957.09;5003008;28;20033;-74
2021/12/21 01:35:11;;;;;;;5.47;3.75;;;;;;;-1.62;53.47;93930.31;5000461;28;20061;-76
2021/12/21 01:38:03;;;;;;;5.18;3.67;;;;;;;-1.47;52.92;93945.44;5007346;28;20045;-76
2021/12/21 01:40:38;;;;;;;3.30;3.00;;;;;;;-1.51;51.41;93954.75;5003132;28;20073;-76
2021/12/21 01:43:58;;;;;;;3.92;2.88;;;;;;;-1.51;51.25;93970.41;5027418;28;20132;-75
2021/12/21 01:51:22;;;;;;;5.15;2.97;;;;;;;-1.41;50.18;93978.41;5021230;28;20566;-76
2021/12/21 01:53:58;;;;;;;7.88;2.83;;;;;;;-1.46;50.26;93975.72;5018482;28;20045;-74
2021/12/21 01:56:24;;;;;;;3.30;2.53;;;;;;;-1.51;50.13;93952.91;5016499;28;20548;-76
2021/12/21 01:58:50;;;;;;;3.40;3.10;;;;;;;-1.28;49.91;93977.31;5020593;28;20041;-76
2021/12/21 02:01:18;;;;;;;3.08;2.58;;;;;;;-1.39;50.01;93971.13;5018469;28;20137;-75
2021/12/21 02:03:47;;;;;;;3.50;2.35;;;;;;;-1.49;50.04;93973.56;5018896;28;20116;-76
2021/12/21 02:06:20;;;;;;;4.57;2.85;;;;;;;-1.82;49.77;93915.09;5014511;28;20072;-74
2021/12/21 02:08:46;;;;;;;5.90;3.20;;;;;;;-1.57;50.09;93959.09;5022327;28;20037;-76
2021/12/21 02:11:13;;;;;;;7.13;3.60;;;;;;;-1.34;50.18;93976.44;5022095;28;20040;-76
2021/12/21 02:13:43;;;;;;;2.95;2.75;;;;;;;-1.24;49.68;93978.41;5015320;28;20041;-75
2021/12/21 02:16:09;;;;;;;2.40;2.22;;;;;;;-1.31;48.89;93973.34;5018827;28;20075;-76
2021/12/21 02:21:13;;;;;;;5.55;2.83;;;;;;;-1.36;48.63;93964.66;5003145;28;20103;-76
2021/12/21 02:23:41;;;;;;;2.28;2.13;;;;;;;-1.64;48.46;93941.97;5002330;28;20360;-76
2021/12/21 02:26:20;;;;;;;2.78;2.22;;;;;;;-2.11;48.85;93887.44;5002702;28;20139;-74
2021/12/21 02:29:08;;;;;;;3.25;2.33;;;;;;;-1.69;48.72;93940.06;5000546;28;20018;-75
2021/12/21 02:31:33;;;;;;;3.17;2.13;;;;;;;-1.73;49.01;93965.03;5009498;28;20128;-75
2021/12/21 02:33:58;;;;;;;7.80;2.28;;;;;;;-1.68;49.04;93961.75;5000967;28;20072;-76
2021/12/21 02:36:24;;;;;;;3.13;1.83;;;;;;;-1.89;49.17;93961.34;5001175;28;20183;-75
2021/12/21 02:38:49;;;;;;;2.22;2.10;;;;;;;-1.83;49.23;93955.22;5004161;28;20042;-76
2021/12/21 02:41:15;;;;;;;2.42;2.17;;;;;;;-2.06;49.31;93928.44;5003444;28;20128;-75
2021/12/21 02:43:41;;;;;;;2.17;1.98;;;;;;;-1.71;49.63;93975.25;5005366;28;20033;-75
2021/12/21 02:46:07;;;;;;;2.13;2.03;;;;;;;-1.55;48.50;93964.03;5024223;28;20560;-76
2021/12/21 02:48:33;;;;;;;2.33;2.00;;;;;;;-1.42;47.67;93971.59;5024084;28;20793;-75
2021/12/21 02:51:00;;;;;;;2.20;1.80;;;;;;;-1.26;47.81;93960.38;5013847;28;20500;-75
2021/12/21 02:53:25;;;;;;;2.20;2.03;;;;;;;-1.19;46.53;93934.13;5006051;28;20053;-76
2021/12/21 02:55:51;;;;;;;2.10;2.00;;;;;;;-1.01;46.58;93945.13;5002969;28;20029;-75
2021/12/21 02:58:16;;;;;;;1.65;1.55;;;;;;;-0.67;44.53;93963.38;5009292;28;20033;-76
2021/12/21 03:00:43;;;;;;;4.05;2.53;;;;;;;-0.73;44.31;93961.75;5002600;28;20716;-75
2021/12/21 03:03:13;;;;;;;2.00;1.90;;;;;;;-0.80;44.35;93968.94;5003860;28;20072;-75
2021/12/21 03:05:48;;;;;;;2.13;1.70;;;;;;;-0.89;44.40;93963.34;5005150;28;20108;-76
2021/12/21 03:08:37;;;;;;;2.65;2.00;;;;;;;-1.18;44.75;93957.41;5001071;28;20045;-77
2021/12/21 03:11:14;;;;;;;3.25;2.15;;;;;;;-1.00;44.44;93975.44;5031622;28;20119;-77
2021/12/21 03:14:03;;;;;;;2.28;1.27;;;;;;;-1.01;43.74;93966.00;5000321;28;20033;-76
2021/12/21 03:16:31;;;;;;;1.83;1.73;;;;;;;-1.16;44.70;93971.00;5007625;28;20113;-75
2021/12/21 03:18:57;;;;;;;1.70;1.60;;;;;;;-1.44;44.51;93926.69;4998206;28;20567;-76
2021/12/21 03:21:23;;;;;;;1.60;1.50;;;;;;;-0.97;44.47;93980.16;5003163;28;20038;-75
2021/12/21 03:23:49;;;;;;;1.80;1.70;;;;;;;-1.10;44.71;93980.50;5002805;28;20060;-76
2021/12/21 03:26:14;;;;;;;1.80;1.70;;;;;;;-1.10;44.84;93974.47;5004580;28;20060;-76
2021/12/21 03:28:51;;;;;;;2.28;1.90;;;;;;;-0.99;44.83;93977.03;5002850;28;20033;-74
2021/12/21 03:31:18;;;;;;;2.17;2.03;;;;;;;-1.31;44.47;93942.03;5002545;28;20037;-75
2021/12/21 03:33:43;;;;;;;1.73;1.63;;;;;;;-1.20;45.25;93949.00;5000362;28;20630;-76
2021/12/21 03:36:09;;;;;;;1.60;1.50;;;;;;;-1.36;45.22;93952.38;5003419;28;20042;-76
2021/12/21 03:38:36;;;;;;;1.90;1.80;;;;;;;-1.37;45.98;93974.31;5002202;28;20680;-75
2021/12/21 03:41:05;;;;;;;3.78;1.95;;;;;;;-1.54;46.12;93948.19;5001897;28;20128;-76
2021/12/21 03:43:31;;;;;;;1.83;1.73;;;;;;;-1.46;45.97;93986.16;5000767;28;20032;-75
2021/12/21 03:46:12;;;;;;;3.25;2.00;;;;;;;-1.45;45.51;93964.22;4999592;28;20037;-76
2021/12/21 03:48:43;;;;;;;2.08;1.88;;;;;;;-1.39;45.58;93960.69;5002543;28;20113;-75
2021/12/21 03:51:09;;;;;;;1.75;1.65;;;;;;;-1.18;44.46;93990.53;5000557;28;20042;-75
2021/12/21 03:53:41;;;;;;;2.45;2.25;;;;;;;-1.41;43.96;93999.28;5002996;28;20044;-75
2021/12/21 03:58:51;;;;;;;1.90;1.35;;;;;;;-1.65;44.28;93985.53;5003212;28;20064;-75
2021/12/21 04:01:17;;;;;;;5.82;1.77;;;;;;;-1.78;44.55;93978.00;5001707;28;20037;-76
2021/12/21 04:03:43;;;;;;;1.65;1.55;;;;;;;-1.68;44.59;93998.25;5014136;28;20516;-75
2021/12/21 04:06:13;;;;;;;1.50;1.40;;;;;;;-1.82;44.26;93997.72;5011450;28;20099;-75
2021/12/21 04:08:39;;;;;;;1.55;1.38;;;;;;;-1.59;44.16;94002.06;5004274;28;20124;-76
2021/12/21 04:11:05;;;;;;;1.70;1.60;;;;;;;-1.41;44.12;94013.09;4996877;28;20059;-75
2021/12/21 04:13:31;;;;;;;1.75;1.65;;;;;;;-1.48;44.12;93998.63;5001675;28;20292;-76
2021/12/21 04:15:59;;;;;;;1.73;1.40;;;;;;;-1.40;44.24;94013.88;4998152;28;20045;-75
2021/12/21 04:18:25;;;;;;;1.45;1.35;;;;;;;-1.34;44.16;94015.56;5005696;28;20871;-75
2021/12/21 04:20:51;;;;;;;1.65;1.58;;;;;;;-1.25;43.81;94000.31;5008512;28;20038;-76
2021/12/21 04:23:17;;;;;;;1.52;1.48;;;;;;;-1.19;43.96;94015.84;4998265;28;20071;-75
2021/12/21 04:25:43;;;;;;;1.60;1.48;;;;;;;-1.27;43.59;94011.00;5004072;28;20083;-76
2021/12/21 04:28:08;;;;;;;1.60;1.50;;;;;;;-1.36;43.82;94011.63;5016176;28;20022;-76
2021/12/21 04:30:34;;;;;;;1.80;1.30;;;;;;;-1.48;43.94;93996.81;5004489;28;20656;-75
2021/12/21 04:33:01;;;;;;;1.58;1.48;;;;;;;-1.42;43.92;94010.75;5000971;28;20038;-75
2021/12/21 04:35:26;;;;;;;2.05;1.88;;;;;;;-1.49;44.10;94002.25;5000515;28;20046;-75
2021/12/21 04:37:57;;;;;;;6.07;1.90;;;;;;;-1.41;44.33;94002.66;5000119;28;20440;-76
2021/12/21 04:40:36;;;;;;;1.50;1.40;;;;;;;-1.39;44.23;94008.44;5009720;28;20030;-75
2021/12/21 04:43:02;;;;;;;2.13;2.03;;;;;;;-1.48;43.20;94014.28;5004596;28;20037;-74
2021/12/21 04:45:27;;;;;;;1.60;1.50;;;;;;;-1.59;42.68;94000.25;5004523;28;20041;-76
2021/12/21 04:47:53;;;;;;;2.38;1.58;;;;;;;-1.36;42.44;94022.81;5006107;28;20405;-75
2021/12/21 04:50:18;;;;;;;1.88;1.65;;;;;;;-1.16;42.17;94023.19;5000848;28;20132;-74
2021/12/21 04:52:44;;;;;;;1.88;1.45;;;;;;;-1.32;42.03;94028.38;5004660;28;20625;-74
2021/12/21 04:55:09;;;;;;;2.60;1.83;;;;;;;-1.40;42.24;94032.94;5000288;28;20821;-75
2021/12/21 04:57:35;;;;;;;3.17;2.97;;;;;;;-1.43;42.80;94024.81;5004796;28;20033;-73
2021/12/21 05:00:00;;;;;;;2.63;2.20;;;;;;;-1.52;42.83;94007.94;5004675;28;20052;-74
2021/12/21 05:02:26;;;;;;;1.75;1.63;;;;;;;-1.61;43.18;94004.94;5003387;28;20445;-75
2021/12/21 05:04:51;;;;;;;4.35;2.03;;;;;;;-1.73;43.08;93980.69;5001178;28;20044;-74
2021/12/21 05:07:22;;;;;;;7.65;3.50;;;;;;;-1.60;43.72;94035.16;5003979;28;20426;-74
2021/12/21 05:09:56;;;;;;;7.40;4.25;;;;;;;-1.51;43.69;94030.41;5001938;28;20049;-74
2021/12/21 05:12:23;;;;;;;1.98;1.67;;;;;;;-1.45;43.74;94043.28;5003066;28;20591;-74
2021/12/21 05:14:48;;;;;;;4.60;2.08;;;;;;;-1.59;43.86;94007.28;5002315;28;20597;-75
2021/12/21 05:17:13;;;;;;;5.78;3.40;;;;;;;-1.39;43.82;94025.91;5003357;28;20506;-74
2021/12/21 05:19:39;;;;;;;4.38;2.50;;;;;;;-1.64;44.50;94036.66;5004250;28;20537;-74
2021/12/21 05:22:06;;;;;;;2.80;2.60;;;;;;;-1.61;44.37;94031.00;5018911;28;20124;-72
2021/12/21 05:24:33;;;;;;;2.30;2.10;;;;;;;-1.59;44.73;94022.94;5002487;28;20128;-74
2021/12/21 05:26:58;;;;;;;1.63;1.48;;;;;;;-1.71;44.52;94022.97;5001005;28;20041;-74
2021/12/21 05:29:24;;;;;;;2.22;2.03;;;;;;;-1.96;45.06;94012.84;5002006;28;20761;-73
2021/12/21 05:31:50;;;;;;;7.10;2.40;;;;;;;-1.87;44.61;94026.31;5000646;28;20072;-74
2021/12/21 05:34:16;;;;;;;2.00;1.90;;;;;;;-1.74;45.07;94053.94;5004425;28;20018;-73
2021/12/21 05:36:41;;;;;;;2.35;2.15;;;;;;;-1.89;45.16;94043.97;4999975;28;20106;-76
2021/12/21 05:39:16;;;;;;;2.10;1.60;;;;;;;-1.95;45.80;94044.94;5004931;28;20054;-76
2021/12/21 05:41:52;;;;;;;1.83;1.58;;;;;;;-2.07;45.81;94042.31;4997507;28;20472;-77
2021/12/21 05:44:20;;;;;;;1.60;1.50;;;;;;;-1.96;45.75;94046.75;5000874;28;20476;-77
2021/12/21 05:46:48;;;;;;;2.70;2.47;;;;;;;-1.74;45.61;94062.53;4998848;28;20463;-77
2021/12/21 05:49:14;;;;;;;1.83;1.73;;;;;;;-2.12;45.79;94042.22;4999643;28;20067;-74
2021/12/21 05:51:39;;;;;;;4.95;1.92;;;;;;;-2.35;46.13;94016.19;4996822;28;20459;-77
2021/12/21 05:54:05;;;;;;;1.70;1.60;;;;;;;-1.91;46.52;94075.50;4994157;28;20038;-74
2021/12/21 05:56:31;;;;;;;1.60;1.60;;;;;;;-2.28;46.24;94004.63;4995803;28;20073;-76
2021/12/21 05:58:57;;;;;;;4.65;2.00;;;;;;;-1.90;46.50;94089.34;4997090;28;20029;-75
2021/12/21 06:01:23;;;;;;;2.10;2.00;;;;;;;-2.30;47.13;94050.19;5004100;28;20729;-75
2021/12/21 06:03:49;;;;;;;2.33;2.13;;;;;;;-2.10;47.25;94075.88;5002794;28;20061;-75
2021/12/21 06:06:16;;;;;;;2.25;1.77;;;;;;;-1.97;46.99;94092.06;5003173;28;20040;-75
2021/12/21 06:08:45;;;;;;;3.00;2.08;;;;;;;-1.91;46.85;94088.56;5030010;28;20041;-75
2021/12/21 06:11:12;;;;;;;2.38;2.20;;;;;;;-1.68;46.31;94085.09;5003358;28;20092;-75
2021/12/21 06:27:10;;;;;;;2.17;1.97;;;;;;;-1.90;46.07;94133.66;5005199;28;20048;-75
2021/12/21 06:29:35;;;;;;;1.60;1.50;;;;;;;-1.86;45.81;94125.16;5001227;28;20464;-75
2021/12/21 06:32:02;;;;;;;3.03;2.17;;;;;;;-2.01;46.11;94130.03;5003657;28;20599;-75
2021/12/21 06:34:37;;;;;;;2.40;1.77;;;;;;;-1.92;46.42;94149.53;5005621;28;20044;-75
2021/12/21 06:37:03;;;;;;;4.65;2.45;;;;;;;-1.84;46.57;94151.78;4996867;28;20148;-75
2021/12/21 06:39:32;;;;;;;2.75;2.05;;;;;;;-2.14;46.64;94113.84;5005830;28;20491;-76
2021/12/21 06:42:00;;;;;;;1.80;1.70;;;;;;;-2.02;47.31;94146.69;5002696;28;20764;-75
2021/12/21 06:44:25;;;;;;;1.70;1.60;;;;;;;-2.03;47.22;94132.06;5001387;28;20046;-75
2021/12/21 06:52:13;;;;;;;2.85;1.88;;;;;;;-1.76;47.14;94136.81;5028898;28;20051;-75
2021/12/21 06:54:42;;;;;;;2.83;2.63;;;;;;;-1.55;46.99;94155.25;5013276;28;20046;-75
2021/12/21 06:57:07;;;;;;;2.60;2.40;;;;;;;-1.35;46.41;94162.69;5002426;28;20045;-76
2021/12/21 06:59:34;;;;;;;2.13;2.03;;;;;;;-1.61;46.89;94160.63;4993832;28;20045;-75
2021/12/21 07:02:00;;;;;;;3.00;1.95;;;;;;;-1.96;47.09;94117.13;5023890;28;20038;-76
2021/12/21 07:04:25;;;;;;;2.97;2.78;;;;;;;-1.73;47.10;94136.34;5026651;28;20800;-75
2021/12/21 07:06:53;;;;;;;2.70;2.50;;;;;;;-1.61;46.98;94163.22;5009327;28;20041;-75
2021/12/21 07:09:30;;;;;;;1.75;1.65;;;;;;;-1.70;46.93;94146.34;5007879;28;20615;-75
2021/12/21 07:18:06;;;;;;;2.47;2.08;;;;;;;-1.77;46.99;94159.50;5002252;28;20184;-75
2021/12/21 07:20:20;;;;;;;3.08;2.60;;;;;;;-1.67;46.92;94177.97;5015121;28;20041;-76
2021/12/21 07:22:45;;;;;;;2.00;1.90;;;;;;;-1.76;47.29;94157.69;5000706;28;20032;-75
2021/12/21 07:25:11;;;;;;;3.47;2.85;;;;;;;-1.61;47.23;94171.03;5008572;28;20034;-75
2021/12/21 07:27:37;;;;;;;3.13;2.22;;;;;;;-1.45;46.99;94178.94;5002371;28;20065;-75
2021/12/21 07:30:05;;;;;;;2.20;2.00;;;;;;;-1.86;46.83;94153.84;5004493;28;20496;-75
2021/12/21 07:32:31;;;;;;;1.98;1.75;;;;;;;-1.71;46.87;94181.25;5000965;28;20038;-74
2021/12/21 07:35:11;;;;;;;1.80;1.70;;;;;;;-1.70;46.15;94188.06;5000088;28;20037;-75
2021/12/21 07:37:38;;;;;;;3.50;2.00;;;;;;;-1.81;46.80;94166.19;5019372;28;20076;-74
2021/12/21 07:40:06;;;;;;;3.17;2.72;;;;;;;-1.84;46.99;94195.31;4990560;28;20404;-75
2021/12/21 07:42:35;;;;;;;1.80;1.70;;;;;;;-1.65;47.03;94195.97;5011804;28;20045;-75
2021/12/21 07:45:00;;;;;;;2.42;2.05;;;;;;;-1.97;47.26;94167.66;5013649;28;20065;-75
2021/12/21 07:47:26;;;;;;;2.05;1.88;;;;;;;-1.75;47.10;94186.13;5003300;28;20468;-74
2021/12/21 07:49:52;;;;;;;5.15;3.95;;;;;;;-1.78;47.53;94193.59;5009177;28;20520;-76
2021/12/21 07:52:20;;;;;;;2.50;2.30;;;;;;;-1.68;47.42;94191.22;5001776;28;20407;-75
2021/12/21 07:54:45;;;;;;;2.38;2.25;;;;;;;-1.99;47.64;94148.84;5030054;28;20196;-75
2021/12/21 07:57:11;;;;;;;4.47;2.00;;;;;;;-1.93;47.22;94160.97;5001510;28;20034;-75
2021/12/21 07:59:38;;;;;;;1.60;1.50;;;;;;;-2.00;47.68;94173.34;5002849;28;20461;-76
2021/12/21 08:02:13;;;;;;;1.95;1.83;;;;;;;-1.92;47.80;94206.06;4992892;28;20769;-74
2021/12/21 08:04:42;;;;;;;3.00;2.25;;;;;;;-1.77;47.79;94209.03;4995401;28;20509;-75
2021/12/21 08:07:12;;;;;;;2.40;2.00;;;;;;;-1.61;47.57;94207.56;5017920;28;20146;-75
2021/12/21 08:09:46;;;;;;;1.95;1.77;;;;;;;-1.49;47.10;94221.38;5000080;28;20531;-76
2021/12/21 08:12:17;;;;;;;2.33;2.05;;;;;;;-1.41;46.72;94219.19;4999975;28;20046;-75
2021/12/21 08:14:44;;;;;;;2.00;1.90;;;;;;;-1.52;46.63;94203.59;4997294;28;20529;-75
2021/12/21 08:17:11;;;;;;;2.70;2.50;;;;;;;-1.47;46.79;94214.91;4999268;28;20030;-76
2021/12/21 08:19:37;;;;;;;2.67;2.30;;;;;;;-1.49;46.80;94203.91;4998784;28;20029;-75
2021/12/21 08:22:03;;;;;;;2.28;2.08;;;;;;;-1.26;46.18;94230.97;4997225;28;20059;-75
2021/12/21 08:24:29;;;;;;;2.65;2.45;;;;;;;-1.36;46.14;94205.47;4995135;28;21066;-75
2021/12/21 08:26:56;;;;;;;1.70;1.60;;;;;;;-1.38;46.16;94255.28;4986714;28;20061;-75
2021/12/21 08:29:22;;;;;;;1.83;1.73;;;;;;;-1.38;46.66;94234.41;5033018;28;20037;-75
2021/12/21 08:31:48;;;;;;;1.80;1.70;;;;;;;-1.11;46.38;94244.34;4998563;28;20409;-75
2021/12/21 08:34:15;;;;;;;2.75;2.05;;;;;;;-0.96;45.44;94229.78;4995932;28;20385;-75
2021/12/21 08:36:41;;;;;;;1.90;1.80;;;;;;;-1.10;45.38;94199.75;4998818;28;20049;-75
2021/12/21 08:39:07;;;;;;;2.05;1.58;;;;;;;-0.84;44.92;94255.09;5001744;28;20054;-76
2021/12/21 08:41:39;;;;;;;1.67;1.58;;;;;;;-0.93;44.95;94230.38;4999885;28;20504;-76
2021/12/21 08:44:05;;;;;;;1.70;1.60;;;;;;;-0.71;45.07;94255.59;5001248;28;20114;-75
2021/12/21 08:46:30;;;;;;;1.75;1.65;;;;;;;-0.71;44.76;94252.19;5003471;28;20476;-75
2021/12/21 08:48:56;;;;;;;2.42;2.20;;;;;;;-0.62;45.15;94254.22;4996071;28;20291;-75
2021/12/21 08:51:21;;;;;;;2.00;1.88;;;;;;;-0.66;44.79;94253.09;5001687;28;20536;-75
2021/12/21 08:53:46;;;;;;;2.08;1.70;;;;;;;-0.75;44.94;94251.88;5001832;28;20057;-75
2021/12/21 08:56:12;;;;;;;2.35;2.13;;;;;;;-0.70;45.25;94251.19;5003715;28;20048;-75
2021/12/21 08:58:37;;;;;;;2.15;1.95;;;;;;;-0.69;44.49;94237.91;5021777;28;20187;-75
2021/12/21 09:01:04;;;;;;;2.97;1.60;;;;;;;-0.84;44.23;94235.00;5001986;28;20046;-75
2021/12/21 09:03:31;;;;;;;1.55;1.45;;;;;;;-0.98;44.84;94260.56;4997850;28;20212;-75
2021/12/21 09:05:57;;;;;;;2.05;1.85;;;;;;;-1.02;44.71;94251.59;4999343;28;20654;-75
2021/12/21 09:08:23;;;;;;;3.20;2.40;;;;;;;-0.88;45.31;94256.56;5004973;28;20128;-76
2021/12/21 09:10:49;;;;;;;2.78;2.58;;;;;;;-1.08;45.56;94249.94;5000763;28;20022;-75
2021/12/21 09:13:15;;;;;;;3.22;2.25;;;;;;;-1.04;45.51;94240.59;5003860;28;20014;-75
2021/12/21 09:15:40;;;;;;;4.40;2.28;;;;;;;-0.94;45.64;94229.56;5001643;28;20112;-75
2021/12/21 09:18:06;;;;;;;1.80;1.67;;;;;;;-0.66;45.00;94252.31;4994100;28;20149;-75
2021/12/21 09:20:34;;;;;;;3.47;2.28;;;;;;;-0.67;44.72;94258.53;5003591;28;20060;-75
2021/12/21 09:23:01;;;;;;;2.65;2.20;;;;;;;-0.82;44.55;94259.03;5031290;28;20055;-76
2021/12/21 09:25:27;;;;;;;1.75;1.65;;;;;;;-0.80;44.17;94253.59;5007693;28;20037;-75
2021/12/21 09:27:53;;;;;;;1.80;1.70;;;;;;;-0.96;44.44;94229.78;5001708;28;20536;-76
2021/12/21 09:30:21;;;;;;;1.63;1.52;;;;;;;-0.92;43.90;94239.78;5000219;28;20321;-75
2021/12/21 09:32:47;;;;;;;3.53;2.30;;;;;;;-0.71;43.55;94262.66;5008257;28;20051;-75
2021/12/21 09:35:13;;;;;;;2.03;1.92;;;;;;;-1.00;44.02;94239.13;5021067;28;20037;-76
2021/12/21 09:37:39;;;;;;;2.15;1.95;;;;;;;-0.80;43.88;94248.38;5014680;28;20096;-75
2021/12/21 09:40:08;;;;;;;1.70;1.60;;;;;;;-0.68;43.24;94257.75;5022278;28;20041;-75
2021/12/21 09:42:34;;;;;;;2.03;1.85;;;;;;;-0.75;42.55;94235.41;5021106;28;20041;-75
2021/12/21 09:45:01;;;;;;;2.20;2.00;;;;;;;-0.50;42.97;94256.78;5022573;28;20515;-76
2021/12/21 09:47:27;;;;;;;2.10;1.92;;;;;;;-0.44;42.88;94249.84;5023430;28;20057;-75
2021/12/21 09:49:53;;;;;;;2.58;1.80;;;;;;;-0.47;42.07;94251.09;5022187;28;20028;-75
2021/12/21 09:52:23;;;;;;;3.10;1.65;;;;;;;-0.45;41.99;94267.34;5023672;28;20008;-75
2021/12/21 09:54:49;;;;;;;1.90;1.80;;;;;;;-0.58;42.20;94276.22;5019426;28;20412;-76
2021/12/21 09:57:17;;;;;;;3.63;2.65;;;;;;;-0.83;42.46;94233.97;5022754;28;20034;-75
2021/12/21 09:59:43;;;;;;;9.52;2.97;;;;;;;-0.64;42.41;94276.38;5020671;28;20103;-75
2021/12/21 10:02:09;;;;;;;3.40;2.03;;;;;;;-0.61;42.77;94281.94;5038259;28;20131;-75
2021/12/21 10:04:55;;;;;;;2.42;2.22;;;;;;;-0.81;42.90;94270.28;5020686;28;20434;-75
2021/12/21 10:07:22;;;;;;;;;;;;;;;-0.79;42.86;94270.84;5022678;28;20179;-75
2021/12/21 10:09:48;;;;;;;11.13;4.57;;;;;;;-0.68;43.04;94285.72;5004354;28;19928;-75
2021/12/21 10:12:39;;;;;;;12.48;5.90;;;;;;;-0.77;42.08;94263.56;5003998;28;20038;-75
2021/12/21 10:15:06;;;;;;;5.50;5.00;;;;;;;-0.63;42.22;94264.91;5001031;28;20046;-75
2021/12/21 10:17:33;;;;;;;9.43;5.68;;;;;;;-0.58;41.90;94246.72;5001201;28;20042;-76
2021/12/21 10:20:07;;;;;;;5.57;4.70;;;;;;;-0.53;41.30;94252.00;5023332;28;20033;-76
2021/12/21 10:22:37;;;;;;;3.67;2.40;;;;;;;-0.60;41.14;94238.31;5002128;28;20026;-75
2021/12/21 10:25:07;;;;;;;2.35;2.10;;;;;;;-0.49;41.44;94258.38;5033553;28;20127;-75
2021/12/21 10:27:44;;;;;;;1.75;1.65;;;;;;;-0.47;41.41;94273.81;5004452;28;20037;-75
2021/12/21 10:30:11;;;;;;;3.53;2.30;;;;;;;-0.57;41.51;94275.22;5020993;28;20046;-76
2021/12/21 10:32:57;;;;;;;1.70;1.60;;;;;;;-0.60;41.36;94260.00;5002843;28;20175;-75
2021/12/21 10:35:31;;;;;;;2.55;2.35;;;;;;;-0.76;42.37;94236.44;4999423;28;20136;-75
2021/12/21 10:37:57;;;;;;;2.50;2.30;;;;;;;-0.67;42.70;94241.06;4999839;28;20829;-75
2021/12/21 10:40:26;;;;;;;1.90;1.80;;;;;;;-0.42;41.94;94269.47;5004139;28;20021;-76
2021/12/21 10:42:57;;;;;;;1.92;1.77;;;;;;;-0.46;42.35;94272.78;5001411;28;20045;-76
2021/12/21 10:45:27;;;;;;;2.05;1.85;;;;;;;-0.56;42.68;94273.41;4999762;28;20161;-76
2021/12/21 10:47:53;;;;;;;2.97;2.20;;;;;;;-0.56;42.85;94273.41;5005178;28;20048;-75
2021/12/21 10:50:19;;;;;;;3.55;2.38;;;;;;;-0.54;43.27;94271.34;5004877;28;20091;-75
2021/12/21 10:52:51;;;;;;;2.80;2.40;;;;;;;-0.55;43.54;94264.53;4999903;28;20195;-75
2021/12/21 10:55:22;;;;;;;3.00;2.03;;;;;;;-0.50;43.39;94267.25;5004248;28;20036;-76
2021/12/21 10:57:48;;;;;;;2.65;2.45;;;;;;;-0.34;43.49;94261.28;5006931;28;20030;-75
2021/12/21 11:00:16;;;;;;;2.28;2.08;;;;;;;-0.36;42.49;94252.88;5008259;28;20038;-75
2021/12/21 11:02:43;;;;;;;3.25;2.08;;;;;;;-0.19;41.50;94237.22;5006053;28;20191;-75
2021/12/21 11:05:15;;;;;;;24.90;3.30;;;;;;;-0.11;41.38;94258.53;5002683;28;20046;-76
2021/12/21 11:08:02;;;;;;;13.90;2.67;;;;;;;-0.01;41.44;94257.13;5008051;28;20056;-75
2021/12/21 11:10:34;;;;;;;2.90;2.28;;;;;;;-0.23;41.94;94236.88;5028337;28;20519;-75
2021/12/21 11:13:05;;;;;;;3.13;2.58;;;;;;;-0.19;42.21;94248.44;5030671;28;20311;-75
2021/12/21 11:15:39;;;;;;;2.53;2.38;;;;;;;-0.27;42.32;94254.06;5005055;28;20424;-75
2021/12/21 11:18:08;;;;;;;2.77;2.53;;;;;;;-0.40;42.24;94256.19;5004696;28;20038;-75
2021/12/21 11:20:40;;;;;;;5.00;2.22;;;;;;;-0.74;42.12;94242.22;5001184;28;20092;-74
2021/12/21 11:23:06;;;;;;;2.10;1.90;;;;;;;-0.60;42.26;94256.59;5004259;28;20192;-74
2021/12/21 11:25:34;;;;;;;3.30;2.95;;;;;;;-0.65;42.44;94253.91;5004344;28;20493;-75
2021/12/21 11:28:02;;;;;;;2.75;2.55;;;;;;;-0.94;43.07;94219.13;4998974;28;20054;-75
2021/12/21 11:30:28;;;;;;;3.15;2.60;;;;;;;-0.75;43.88;94248.47;5015682;28;20037;-74
2021/12/21 11:32:56;;;;;;;2.65;2.45;;;;;;;-1.06;44.39;94232.19;5015881;28;20034;-75
2021/12/21 11:38:03;;;;;;;2.38;2.28;;;;;;;-1.18;43.52;94254.94;5003494;28;20068;-74
2021/12/21 11:40:33;;;;;;;3.17;2.33;;;;;;;-1.18;42.98;94254.13;5012394;28;20369;-75
2021/12/21 11:43:24;;;;;;;2.15;1.98;;;;;;;-1.15;42.95;94259.69;5005063;28;20034;-75
2021/12/21 11:46:06;;;;;;;2.75;1.83;;;;;;;-1.24;42.53;94266.28;5005192;28;20107;-75
2021/12/21 11:48:36;;;;;;;1.85;1.75;;;;;;;-1.27;43.54;94269.34;5010580;28;20064;-76
2021/12/21 11:51:08;;;;;;;4.10;2.10;;;;;;;-1.08;42.95;94260.38;5009720;28;20041;-75
2021/12/21 11:53:35;;;;;;;2.38;2.15;;;;;;;-1.08;41.84;94260.38;4999432;28;20346;-74
2021/12/21 11:56:01;;;;;;;2.17;1.95;;;;;;;-1.05;41.29;94246.03;4995446;28;20026;-75
2021/12/21 11:58:32;;;;;;;2.75;2.30;;;;;;;-1.13;40.91;94226.31;5001184;28;20030;-74
2021/12/21 12:01:14;;;;;;;2.70;2.10;;;;;;;-1.02;40.96;94256.81;5026168;28;20579;-75
2021/12/21 12:03:46;;;;;;;5.85;2.40;;;;;;;-0.98;41.11;94250.13;5033639;28;20048;-75
2021/12/21 12:06:14;;;;;;;1.75;1.65;;;;;;;-0.79;40.90;94252.56;5021156;28;20184;-74
2021/12/21 12:08:45;;;;;;;3.88;3.22;;;;;;;-0.56;40.71;94249.88;5023560;28;20335;-75
2021/12/21 12:11:25;;;;;;;4.00;1.92;;;;;;;-0.67;39.94;94250.72;5015034;28;20037;-75
2021/12/21 12:14:06;;;;;;;4.28;2.03;;;;;;;-0.75;39.94;94254.50;5018657;28;20564;-74
2021/12/21 12:16:45;;;;;;;2.38;2.15;;;;;;;-0.74;40.00;94258.69;5015346;28;20025;-75
2021/12/21 12:19:18;;;;;;;2.50;2.30;;;;;;;-0.83;40.21;94267.13;5033908;28;20049;-75
2021/12/21 12:22:13;;;;;;;5.88;2.67;;;;;;;-0.86;39.82;94263.16;5020524;28;20820;-75
2021/12/21 12:24:56;;;;;;;2.03;1.92;;;;;;;-0.95;39.99;94274.97;5020899;28;20148;-75
2021/12/21 12:27:28;;;;;;;3.80;2.53;;;;;;;-1.57;40.01;94193.03;5036008;28;20129;-75
2021/12/21 12:29:59;;;;;;;2.10;1.90;;;;;;;-1.13;39.57;94255.03;5011819;28;20032;-75
2021/12/21 12:32:39;;;;;;;2.40;1.83;;;;;;;-1.16;39.98;94278.97;5022710;28;20561;-75
2021/12/21 12:35:26;;;;;;;2.88;2.38;;;;;;;-1.14;39.70;94258.66;5017466;28;20049;-75
2021/12/21 12:38:02;;;;;;;7.38;4.72;;;;;;;-0.96;39.89;94284.63;5018108;28;20042;-75